createdAt,value
2023-01-06T00:01:55.831Z,1.90
2023-01-06T00:04:36.902Z,2.38
2023-01-06T00:07:30.857Z,1.63
2023-01-06T00:10:18.881Z,1.23
2023-01-06T00:12:52.949Z,2.40
2023-01-06T00:15:40.880Z,2.00
2023-01-06T00:18:21.953Z,2.20
2023-01-06T00:21:01.833Z,2.03
2023-01-06T00:23:42.924Z,1.85
2023-01-06T00:26:22.874Z,2.42
2023-01-06T00:29:10.903Z,1.80
2023-01-06T00:31:44.811Z,2.33
2023-01-06T00:34:32.868Z,2.35
2023-01-06T00:37:12.868Z,2.50
2023-01-06T00:40:00.887Z,2.60
2023-01-06T00:42:34.837Z,2.95
2023-01-06T00:45:22.851Z,1.02
2023-01-06T00:47:56.883Z,2.03
2023-01-06T00:50:44.882Z,1.80
2023-01-06T00:53:19.003Z,1.73
2023-01-06T00:56:12.851Z,1.13
2023-01-06T00:58:46.808Z,1.83
2023-01-06T01:01:34.917Z,1.60
2023-01-06T01:04:15.848Z,1.40
2023-01-06T01:06:57.000Z,1.85
2023-01-06T01:09:37.850Z,0.88
2023-01-06T01:12:19.049Z,1.83
2023-01-06T01:15:00.876Z,2.03
2023-01-06T01:17:41.928Z,1.63
2023-01-06T01:20:28.869Z,0.90
2023-01-06T01:23:02.933Z,1.52
2023-01-06T01:25:49.843Z,1.60
2023-01-06T01:28:30.856Z,1.48
2023-01-06T01:31:19.902Z,1.80
2023-01-06T01:33:53.966Z,1.80
2023-01-06T01:36:41.847Z,1.65
2023-01-06T01:39:22.874Z,1.38
2023-01-06T01:42:10.852Z,1.65
2023-01-06T01:44:56.946Z,1.13
2023-01-06T01:47:46.888Z,1.02
2023-01-06T01:50:20.993Z,0.68
2023-01-06T01:53:13.876Z,0.90
2023-01-06T01:55:54.851Z,1.65
2023-01-06T01:58:53.831Z,1.50
2023-01-06T02:01:41.900Z,1.35
2023-01-06T02:04:25.966Z,0.65
2023-01-06T02:07:05.881Z,1.73
2023-01-06T02:10:13.876Z,0.68
2023-01-06T02:12:55.877Z,1.67
2023-01-06T02:15:44.923Z,1.77
2023-01-06T02:18:18.775Z,1.58
2023-01-06T02:21:06.875Z,2.40
2023-01-06T02:24:05.881Z,1.85
2023-01-06T02:26:55.987Z,2.65
2023-01-06T02:29:45.841Z,1.30
2023-01-06T02:32:38.967Z,1.30
2023-01-06T02:35:34.882Z,1.13
2023-01-06T02:38:20.920Z,3.45
2023-01-06T02:41:03.901Z,1.20
2023-01-06T02:43:50.947Z,1.30
2023-01-06T02:46:34.940Z,1.08
2023-01-06T02:49:18.963Z,1.23
2023-01-06T02:51:58.875Z,0.57
2023-01-06T02:54:46.885Z,1.13
2023-01-06T02:57:20.778Z,0.88
2023-01-06T03:00:25.882Z,1.58
2023-01-06T03:03:04.534Z,1.50
2023-01-06T03:05:51.937Z,1.30
2023-01-06T03:08:28.788Z,1.40
2023-01-06T03:11:16.888Z,1.33
2023-01-06T03:13:56.830Z,1.10
2023-01-06T03:16:44.870Z,1.58
2023-01-06T03:19:18.915Z,0.85
2023-01-06T03:22:06.874Z,1.25
2023-01-06T03:24:47.905Z,1.50
2023-01-06T03:27:30.953Z,1.40
2023-01-06T03:30:15.865Z,1.40
2023-01-06T03:33:08.394Z,1.60
2023-01-06T03:35:51.777Z,1.02
2023-01-06T03:38:39.898Z,1.65
2023-01-06T03:41:13.814Z,1.30
2023-01-06T03:44:27.865Z,0.55
2023-01-06T03:47:06.482Z,1.92
2023-01-06T03:49:58.850Z,1.42
2023-01-06T03:52:34.395Z,1.40
2023-01-06T03:55:32.848Z,1.15
2023-01-06T03:58:09.526Z,1.65
2023-01-06T04:00:56.913Z,1.58
2023-01-06T04:03:31.009Z,2.00
2023-01-06T04:06:18.855Z,1.10
2023-01-06T04:08:52.931Z,1.63
2023-01-06T04:11:58.865Z,1.33
2023-01-06T04:14:38.873Z,1.65
2023-01-06T04:17:19.976Z,1.75
2023-01-06T04:19:59.899Z,1.50
2023-01-06T04:22:40.950Z,1.02
2023-01-06T04:25:21.905Z,1.38
2023-01-06T04:28:09.876Z,1.50
2023-01-06T04:30:43.921Z,1.40
2023-01-06T04:33:31.880Z,1.38
2023-01-06T04:36:06.049Z,1.50
2023-01-06T04:38:53.900Z,2.47
2023-01-06T04:41:27.989Z,1.20
2023-01-06T04:44:15.871Z,1.45
2023-01-06T04:47:09.868Z,1.60
2023-01-06T04:49:57.870Z,2.03
2023-01-06T04:52:38.850Z,1.60
2023-01-06T04:55:32.897Z,1.80
2023-01-06T04:58:20.899Z,2.70
2023-01-06T05:00:54.948Z,1.60
2023-01-06T05:03:42.894Z,1.40
2023-01-06T05:06:25.852Z,1.40
2023-01-06T05:09:13.909Z,1.48
2023-01-06T05:11:47.994Z,1.17
2023-01-06T05:14:34.868Z,1.25
2023-01-06T05:17:15.901Z,1.58
2023-01-06T05:20:09.864Z,1.08
2023-01-06T05:22:56.924Z,1.42
2023-01-06T05:25:30.938Z,1.58
2023-01-06T05:28:17.877Z,1.60
2023-01-06T05:30:52.011Z,1.83
2023-01-06T05:33:39.862Z,1.60
2023-01-06T05:36:24.873Z,1.52
2023-01-06T05:39:18.880Z,1.83
2023-01-06T05:42:06.892Z,1.88
2023-01-06T05:44:40.990Z,1.63
2023-01-06T05:47:27.875Z,1.65
2023-01-06T05:50:01.935Z,2.00
2023-01-06T05:52:49.889Z,1.67
2023-01-06T05:55:23.949Z,1.85
2023-01-06T05:58:11.871Z,1.30
2023-01-06T06:00:45.954Z,2.05
2023-01-06T06:03:32.969Z,1.70
2023-01-06T06:06:10.972Z,1.75
2023-01-06T06:09:00.895Z,1.23
2023-01-06T06:11:41.905Z,1.80
2023-01-06T06:14:29.873Z,1.45
2023-01-06T06:17:10.938Z,1.88
2023-01-06T06:19:50.857Z,2.03
2023-01-06T06:22:38.871Z,2.10
2023-01-06T06:25:18.854Z,2.08
2023-01-06T06:28:04.047Z,1.45
2023-01-06T06:30:43.888Z,2.22
2023-01-06T06:33:24.964Z,1.30
2023-01-06T06:36:05.880Z,1.33
2023-01-06T06:38:46.968Z,1.70
2023-01-06T06:41:27.877Z,2.17
2023-01-06T06:44:15.866Z,2.15
2023-01-06T06:46:56.906Z,2.03
2023-01-06T06:49:44.923Z,1.65
2023-01-06T06:52:18.944Z,1.73
2023-01-06T06:55:06.867Z,1.17
2023-01-06T06:57:40.919Z,1.50
2023-01-06T07:00:28.903Z,2.55
2023-01-06T07:03:08.913Z,1.38
2023-01-06T07:05:53.009Z,1.70
2023-01-06T07:08:33.904Z,1.73
2023-01-06T07:11:21.903Z,1.85
2023-01-06T07:14:01.912Z,1.50
2023-01-06T07:16:49.876Z,4.43
2023-01-06T07:19:36.911Z,7.88
2023-01-06T07:22:17.906Z,4.45
2023-01-06T07:25:04.935Z,2.47
2023-01-06T07:27:45.948Z,2.15
2023-01-06T07:30:26.895Z,2.28
2023-01-06T07:33:08.025Z,2.67
2023-01-06T07:35:47.906Z,1.85
2023-01-06T07:38:35.918Z,2.30
2023-01-06T07:41:09.825Z,1.45
2023-01-06T07:43:57.893Z,1.60
2023-01-06T07:46:31.937Z,3.28
2023-01-06T07:49:19.874Z,2.72
2023-01-06T07:51:59.936Z,2.35
2023-01-06T07:54:47.940Z,1.75
2023-01-06T07:57:21.852Z,2.40
2023-01-06T08:00:09.916Z,1.80
2023-01-06T08:02:49.899Z,2.10
2023-01-06T08:05:43.919Z,2.88
2023-01-06T08:11:04.996Z,1.70
2023-01-06T08:13:45.939Z,2.65
2023-01-06T08:16:39.861Z,2.90
2023-01-06T08:19:26.923Z,3.70
2023-01-06T08:22:01.057Z,4.88
2023-01-06T08:24:47.898Z,2.58
2023-01-06T08:27:28.917Z,2.72
2023-01-06T08:30:27.926Z,2.97
2023-01-06T08:33:15.888Z,3.88
2023-01-06T08:35:56.879Z,3.00
2023-01-06T08:38:44.988Z,2.85
2023-01-06T08:41:25.888Z,3.13
2023-01-06T08:44:20.927Z,3.03
2023-01-06T08:47:07.899Z,2.83
2023-01-06T08:49:41.977Z,2.25
2023-01-06T08:52:29.914Z,1.88
2023-01-06T08:55:03.938Z,1.90
2023-01-06T08:57:53.251Z,2.60
2023-01-06T09:00:28.953Z,3.90
2023-01-06T09:03:16.897Z,2.90
2023-01-06T09:05:57.904Z,5.05
2023-01-06T09:08:51.891Z,4.22
2023-01-06T09:11:39.890Z,3.60
2023-01-06T09:14:21.889Z,4.28
2023-01-06T09:17:15.900Z,3.70
2023-01-06T09:20:02.887Z,4.05
2023-01-06T09:22:43.891Z,4.65
2023-01-06T09:25:37.892Z,4.40
2023-01-06T09:28:24.912Z,4.28
2023-01-06T09:31:12.967Z,2.80
2023-01-06T09:33:53.888Z,2.72
2023-01-06T09:36:34.994Z,5.78
2023-01-06T09:39:16.730Z,4.57
2023-01-06T09:42:00.991Z,5.10
2023-01-06T09:44:46.914Z,5.00
2023-01-06T09:47:39.925Z,4.57
2023-01-06T09:50:22.298Z,4.88
2023-01-06T09:53:24.902Z,5.40
2023-01-06T09:56:03.487Z,4.57
2023-01-06T09:58:53.963Z,5.40
2023-01-06T10:01:37.781Z,3.60
2023-01-06T10:04:36.894Z,4.45
2023-01-06T10:07:29.943Z,4.18
2023-01-06T10:10:13.949Z,6.38
2023-01-06T10:12:59.907Z,8.57
2023-01-06T10:15:58.020Z,6.97
2023-01-06T10:18:37.920Z,4.28
2023-01-06T10:21:21.007Z,5.50
2023-01-06T10:24:24.922Z,5.78
2023-01-06T10:27:08.857Z,4.68
2023-01-06T10:29:50.909Z,5.35
2023-01-06T10:32:34.001Z,3.70
2023-01-06T10:35:18.891Z,6.90
2023-01-06T10:38:01.012Z,6.00
2023-01-06T10:40:42.926Z,3.13
2023-01-06T10:43:24.028Z,5.18
2023-01-06T10:46:04.893Z,7.93
2023-01-06T10:48:46.766Z,5.90
2023-01-06T10:51:39.913Z,4.68
2023-01-06T10:54:23.065Z,5.55
2023-01-06T10:57:06.927Z,4.35
2023-01-06T11:00:06.734Z,4.93
2023-01-06T11:03:09.235Z,5.88
2023-01-06T11:05:54.947Z,8.02
2023-01-06T11:08:34.954Z,5.22
2023-01-06T11:11:28.675Z,6.22
2023-01-06T11:14:11.899Z,5.60
2023-01-06T11:16:59.964Z,4.60
2023-01-06T11:19:42.950Z,4.43
2023-01-06T11:22:52.905Z,4.30
2023-01-06T11:25:40.879Z,5.32
2023-01-06T11:28:16.993Z,5.57
2023-01-06T11:31:14.938Z,4.57
2023-01-06T11:34:00.977Z,3.40
2023-01-06T11:36:51.900Z,3.70
2023-01-06T11:39:36.989Z,3.10
2023-01-06T11:42:24.883Z,5.63
2023-01-06T11:44:59.020Z,4.32
2023-01-06T11:47:45.924Z,3.10
2023-01-06T11:50:26.970Z,2.92
2023-01-06T11:53:08.900Z,5.07
2023-01-06T11:55:49.994Z,3.88
2023-01-06T11:58:56.894Z,3.95
2023-01-06T12:01:38.094Z,4.97
2023-01-06T12:04:38.919Z,6.78
2023-01-06T12:07:23.025Z,5.95
2023-01-06T12:10:04.886Z,4.43
2023-01-06T12:12:52.898Z,4.22
2023-01-06T12:15:29.605Z,4.80
2023-01-06T12:18:22.904Z,3.87
2023-01-06T12:20:57.525Z,3.63
2023-01-06T12:23:47.917Z,4.55
2023-01-06T12:26:23.966Z,3.70
2023-01-06T12:29:12.922Z,2.30
2023-01-06T12:32:18.395Z,2.80
2023-01-06T12:35:06.876Z,3.40
2023-01-06T12:37:43.290Z,5.00
2023-01-06T12:40:43.959Z,3.63
2023-01-06T12:43:17.914Z,4.20
2023-01-06T12:46:26.971Z,3.63
2023-01-06T12:49:10.923Z,4.43
2023-01-06T12:52:00.961Z,3.92
2023-01-06T12:57:56.884Z,3.20
2023-01-06T13:00:55.969Z,4.05
2023-01-06T13:03:36.018Z,4.82
2023-01-06T13:06:41.891Z,4.10
2023-01-06T13:09:45.951Z,4.43
2023-01-06T13:12:32.899Z,5.80
2023-01-06T13:15:18.967Z,5.03
2023-01-06T13:18:12.924Z,4.22
2023-01-06T13:20:56.893Z,4.00
2023-01-06T13:24:10.903Z,5.78
2023-01-06T13:27:00.934Z,5.35
2023-01-06T13:29:47.900Z,5.85
2023-01-06T13:32:42.019Z,8.55
2023-01-06T13:36:01.917Z,6.30
2023-01-06T13:38:45.004Z,9.68
2023-01-06T13:41:43.876Z,6.93
2023-01-06T13:44:35.911Z,6.57
2023-01-06T13:47:31.948Z,8.02
2023-01-06T13:50:20.938Z,7.45
2023-01-06T13:53:02.959Z,6.63
2023-01-06T13:55:56.899Z,8.70
2023-01-06T13:58:44.897Z,9.02
2023-01-06T14:01:26.228Z,7.30
2023-01-06T14:04:37.909Z,7.60
2023-01-06T14:07:11.972Z,7.72
2023-01-06T14:09:58.925Z,7.70
2023-01-06T14:12:32.966Z,7.53
2023-01-06T14:15:29.970Z,9.18
2023-01-06T14:18:17.896Z,7.60
2023-01-06T14:20:59.633Z,6.95
2023-01-06T14:23:46.902Z,7.85
2023-01-06T14:26:28.105Z,7.40
2023-01-06T14:29:46.039Z,7.43
2023-01-06T14:32:32.924Z,7.55
2023-01-06T14:35:18.049Z,8.40
2023-01-06T14:38:20.191Z,6.30
2023-01-06T14:41:09.885Z,7.88
2023-01-06T14:43:51.005Z,8.77
2023-01-06T14:46:52.927Z,10.07
2023-01-06T14:49:36.907Z,7.32
2023-01-06T14:52:29.951Z,8.75
2023-01-06T14:55:16.028Z,8.10
2023-01-06T14:57:57.007Z,8.10
2023-01-06T15:00:39.921Z,7.50
2023-01-06T15:03:30.030Z,5.97
2023-01-06T15:08:44.952Z,11.70
2023-01-06T15:11:26.113Z,12.93
2023-01-06T15:14:05.907Z,10.05
2023-01-06T15:16:47.972Z,8.45
2023-01-06T15:19:28.946Z,8.52
2023-01-06T15:22:13.990Z,9.40
2023-01-06T15:24:54.945Z,7.55
2023-01-06T15:27:36.000Z,7.45
2023-01-06T15:30:25.917Z,9.10
2023-01-06T15:33:07.033Z,12.25
2023-01-06T15:35:46.963Z,9.95
2023-01-06T15:38:47.003Z,10.18
2023-01-06T15:41:39.929Z,11.50
2023-01-06T15:44:35.949Z,7.90
2023-01-06T15:47:12.564Z,8.57
2023-01-06T15:50:08.935Z,10.98
2023-01-06T15:52:47.269Z,8.48
2023-01-06T15:55:52.907Z,10.82
2023-01-06T15:58:38.452Z,10.55
2023-01-06T16:01:27.030Z,10.32
2023-01-06T16:04:02.036Z,11.20
2023-01-06T16:06:50.007Z,10.70
2023-01-06T16:09:36.978Z,11.27
2023-01-06T16:12:31.934Z,11.27
2023-01-06T16:15:30.931Z,12.27
2023-01-06T16:18:19.884Z,13.10
2023-01-06T16:20:53.957Z,12.35
2023-01-06T16:23:44.924Z,10.50
2023-01-06T16:26:21.887Z,10.27
2023-01-06T16:29:13.916Z,9.77
2023-01-06T16:31:47.882Z,11.63
2023-01-06T16:34:35.945Z,8.88
2023-01-06T16:37:15.908Z,12.25
2023-01-06T16:40:05.183Z,12.35
2023-01-06T16:42:45.914Z,12.20
2023-01-06T16:45:39.941Z,11.98
2023-01-06T16:48:15.175Z,10.88
2023-01-06T16:51:03.922Z,8.95
2023-01-06T16:53:58.960Z,9.80
2023-01-06T16:56:52.934Z,10.75
2023-01-06T16:59:42.920Z,9.48
2023-01-06T17:02:30.022Z,10.95
2023-01-06T17:05:33.945Z,10.23
2023-01-06T17:08:22.916Z,9.48
2023-01-06T17:10:57.051Z,10.68
2023-01-06T17:13:46.097Z,9.68
2023-01-06T17:16:29.465Z,10.48
2023-01-06T17:19:26.025Z,10.52
2023-01-06T17:22:37.920Z,10.77
2023-01-06T17:25:31.920Z,11.25
2023-01-06T17:28:26.940Z,12.48
2023-01-06T17:31:01.280Z,11.55
2023-01-06T17:33:48.926Z,15.52
2023-01-06T17:36:35.017Z,18.90
2023-01-06T17:39:29.923Z,16.67
2023-01-06T17:42:24.008Z,14.07
2023-01-06T17:45:18.935Z,15.38
2023-01-06T17:47:56.041Z,15.75
2023-01-06T17:54:04.945Z,14.05
2023-01-06T17:56:39.058Z,15.05
2023-01-06T17:59:25.916Z,14.50
2023-01-06T18:02:07.217Z,18.42
2023-01-06T18:05:00.939Z,18.95
2023-01-06T18:07:47.940Z,13.15
2023-01-06T18:10:24.011Z,15.30
2023-01-06T18:13:28.961Z,14.95
2023-01-06T18:16:07.278Z,15.23
2023-01-06T18:18:54.916Z,14.80
2023-01-06T18:21:45.904Z,16.05
2023-01-06T18:24:43.955Z,14.25
2023-01-06T18:27:30.917Z,13.80
2023-01-06T18:30:15.924Z,13.30
2023-01-06T18:33:02.907Z,16.00
2023-01-06T18:35:44.011Z,15.27
2023-01-06T18:38:30.439Z,18.67
2023-01-06T18:41:17.911Z,21.67
2023-01-06T18:43:58.962Z,17.40
2023-01-06T18:46:40.004Z,16.15
2023-01-06T18:49:21.915Z,18.92
2023-01-06T18:52:02.988Z,24.13
2023-01-06T18:54:42.908Z,22.63
2023-01-06T18:57:32.026Z,22.92
2023-01-06T19:00:31.952Z,20.92
2023-01-06T19:03:28.953Z,18.60
2023-01-06T19:06:23.219Z,16.48
2023-01-06T19:09:10.973Z,19.52
2023-01-06T19:11:54.111Z,20.10
2023-01-06T19:14:35.995Z,16.33
2023-01-06T19:17:25.917Z,17.58
2023-01-06T19:20:14.899Z,18.98
2023-01-06T19:22:55.948Z,17.30
2023-01-06T19:25:48.294Z,16.30
2023-01-06T19:28:31.952Z,15.77
2023-01-06T19:31:13.170Z,14.25
2023-01-06T19:34:00.313Z,11.57
2023-01-06T19:36:57.951Z,13.57
2023-01-06T19:39:49.920Z,11.02
2023-01-06T19:42:34.163Z,15.88
2023-01-06T19:45:22.079Z,15.63
2023-01-06T19:48:03.060Z,11.30
2023-01-06T19:50:42.919Z,11.73
2023-01-06T19:53:44.176Z,12.45
2023-01-06T19:56:32.930Z,14.27
2023-01-06T19:59:30.952Z,12.65
2023-01-06T20:02:14.166Z,12.27
2023-01-06T20:04:55.174Z,12.75
2023-01-06T20:07:35.131Z,13.07
2023-01-06T20:10:16.115Z,14.23
2023-01-06T20:12:57.050Z,12.23
2023-01-06T20:15:38.160Z,12.70
2023-01-06T20:18:17.924Z,14.85
2023-01-06T20:21:05.935Z,14.65
2023-01-06T20:23:40.062Z,15.82
2023-01-06T20:26:27.936Z,15.18
2023-01-06T20:29:10.944Z,15.43
2023-01-06T20:31:58.995Z,15.82
2023-01-06T20:34:32.949Z,13.48
2023-01-06T20:37:21.002Z,12.75
2023-01-06T20:39:54.891Z,15.63
2023-01-06T20:42:43.017Z,14.45
2023-01-06T20:45:16.995Z,12.73
2023-01-06T20:48:04.936Z,13.35
2023-01-06T20:50:41.871Z,12.70
2023-01-06T20:56:08.950Z,11.63
2023-01-06T20:58:50.020Z,15.82
2023-01-06T21:01:30.085Z,15.82
2023-01-06T21:04:11.093Z,11.80
2023-01-06T21:06:52.093Z,12.68
2023-01-06T21:09:32.999Z,12.95
2023-01-06T21:12:13.957Z,12.05
2023-01-06T21:14:55.075Z,14.73
2023-01-06T21:17:36.055Z,14.95
2023-01-06T21:20:24.065Z,16.40
2023-01-06T21:22:57.930Z,15.85
2023-01-06T21:25:46.061Z,14.48
2023-01-06T21:28:39.984Z,14.32
2023-01-06T21:31:27.001Z,14.10
2023-01-06T21:34:01.019Z,15.43
2023-01-06T21:36:48.950Z,16.55
2023-01-06T21:39:23.048Z,16.55
2023-01-06T21:42:29.969Z,16.48
2023-01-06T21:45:10.996Z,14.57
2023-01-06T21:48:04.955Z,17.42
2023-01-06T21:50:52.941Z,19.45
2023-01-06T21:53:29.199Z,15.77
2023-01-06T21:56:15.927Z,18.67
2023-01-06T21:58:50.042Z,14.73
2023-01-06T22:01:37.046Z,16.63
2023-01-06T22:04:17.964Z,16.20
2023-01-06T22:07:15.944Z,17.13
2023-01-06T22:10:05.969Z,15.25
2023-01-06T22:15:27.955Z,14.70
2023-01-06T22:18:05.014Z,14.90
2023-01-06T22:23:21.602Z,13.95
2023-01-06T22:26:08.974Z,11.35
2023-01-06T22:28:49.923Z,10.90
2023-01-06T22:31:39.985Z,8.57
2023-01-06T22:34:14.732Z,10.55
2023-01-06T22:37:02.995Z,10.93
2023-01-06T22:39:43.946Z,10.57
2023-01-06T22:42:31.959Z,10.90
2023-01-06T22:45:06.460Z,9.85
2023-01-06T22:47:53.963Z,8.75
2023-01-06T22:50:27.903Z,9.75
2023-01-06T22:53:15.972Z,11.25
2023-01-06T22:56:03.066Z,7.07
2023-01-06T22:58:51.946Z,8.10
2023-01-06T23:01:32.996Z,5.47
2023-01-06T23:04:20.964Z,11.85
2023-01-06T23:07:00.960Z,9.13
2023-01-06T23:09:42.047Z,13.02
2023-01-06T23:12:28.957Z,9.45
2023-01-06T23:15:02.996Z,10.65
2023-01-06T23:17:49.966Z,10.45
2023-01-06T23:20:24.065Z,12.52
2023-01-06T23:23:10.941Z,10.73
2023-01-06T23:25:46.813Z,9.07
2023-01-06T23:28:34.970Z,8.82
2023-01-06T23:31:13.092Z,11.23
2023-01-06T23:34:04.954Z,11.25
2023-01-06T23:36:45.989Z,11.32
2023-01-06T23:39:39.958Z,8.05
2023-01-06T23:42:27.357Z,9.38
2023-01-06T23:45:01.069Z,8.43
2023-01-06T23:47:47.921Z,8.93
2023-01-06T23:50:29.018Z,8.25
2023-01-06T23:53:22.922Z,9.50
2023-01-06T23:56:11.961Z,6.90
2023-01-06T23:58:53.965Z,6.75
